sensor_id;sensor_type;location;lat;lon;timestamp;pressure;altitude;pressure_sealevel;temperature;humidity
6096;BME280;25081;42.698;23.298;2022-07-23T00:00:14;95476.45;;;22.42;49.08
6096;BME280;25081;42.698;23.298;2022-07-23T00:02:24;95478.36;;;22.41;49.43
6096;BME280;25081;42.698;23.298;2022-07-23T00:04:35;95477.55;;;22.38;49.61
6096;BME280;25081;42.698;23.298;2022-07-23T00:06:45;95479.50;;;22.35;49.76
6096;BME280;25081;42.698;23.298;2022-07-23T00:08:56;95484.19;;;22.27;50.03
6096;BME280;25081;42.698;23.298;2022-07-23T00:11:07;95484.25;;;22.22;50.26
6096;BME280;25081;42.698;23.298;2022-07-23T00:13:17;95484.84;;;22.16;50.40
6096;BME280;25081;42.698;23.298;2022-07-23T00:15:28;95485.39;;;22.16;50.31
6096;BME280;25081;42.698;23.298;2022-07-23T00:17:39;95490.01;;;22.15;50.36
6096;BME280;25081;42.698;23.298;2022-07-23T00:19:50;95486.80;;;22.11;50.59
6096;BME280;25081;42.698;23.298;2022-07-23T00:22:00;95489.23;;;22.12;50.87
6096;BME280;25081;42.698;23.298;2022-07-23T00:24:11;95491.66;;;22.14;51.21
6096;BME280;25081;42.698;23.298;2022-07-23T00:26:22;95494.89;;;22.16;51.20
6096;BME280;25081;42.698;23.298;2022-07-23T00:28:32;95487.81;;;22.20;51.03
6096;BME280;25081;42.698;23.298;2022-07-23T00:30:43;95487.52;;;22.19;51.02
6096;BME280;25081;42.698;23.298;2022-07-23T00:32:55;95489.46;;;22.16;51.33
6096;BME280;25081;42.698;23.298;2022-07-23T00:35:05;95490.33;;;22.11;51.64
6096;BME280;25081;42.698;23.298;2022-07-23T00:37:16;95489.17;;;22.17;51.44
6096;BME280;25081;42.698;23.298;2022-07-23T00:39:26;95494.14;;;22.10;51.80
6096;BME280;25081;42.698;23.298;2022-07-23T00:41:37;95500.70;;;21.99;52.06
6096;BME280;25081;42.698;23.298;2022-07-23T00:43:48;95497.03;;;21.85;52.51
6096;BME280;25081;42.698;23.298;2022-07-23T00:45:58;95493.24;;;21.81;52.54
6096;BME280;25081;42.698;23.298;2022-07-23T00:48:09;95494.70;;;21.68;53.27
6096;BME280;25081;42.698;23.298;2022-07-23T00:50:20;95491.78;;;21.62;53.27
6096;BME280;25081;42.698;23.298;2022-07-23T00:52:31;95491.61;;;21.46;53.92
6096;BME280;25081;42.698;23.298;2022-07-23T00:54:41;95495.95;;;21.47;53.68
6096;BME280;25081;42.698;23.298;2022-07-23T00:56:52;95492.11;;;21.53;53.37
6096;BME280;25081;42.698;23.298;2022-07-23T00:59:02;95493.47;;;21.53;53.26
6096;BME280;25081;42.698;23.298;2022-07-23T01:01:13;95491.59;;;21.48;53.49
6096;BME280;25081;42.698;23.298;2022-07-23T01:03:24;95498.72;;;21.36;54.01
6096;BME280;25081;42.698;23.298;2022-07-23T01:05:34;95497.65;;;21.35;53.99
6096;BME280;25081;42.698;23.298;2022-07-23T01:07:45;95501.14;;;21.38;53.82
6096;BME280;25081;42.698;23.298;2022-07-23T01:09:55;95502.50;;;21.38;53.51
6096;BME280;25081;42.698;23.298;2022-07-23T01:12:07;95497.08;;;21.38;53.70
6096;BME280;25081;42.698;23.298;2022-07-23T01:14:18;95493.31;;;21.34;53.88
6096;BME280;25081;42.698;23.298;2022-07-23T01:16:29;95491.96;;;21.34;53.89
6096;BME280;25081;42.698;23.298;2022-07-23T01:18:39;95496.03;;;21.34;53.94
6096;BME280;25081;42.698;23.298;2022-07-23T01:20:50;95493.86;;;21.31;54.11
6096;BME280;25081;42.698;23.298;2022-07-23T01:23:00;95493.33;;;21.29;54.01
6096;BME280;25081;42.698;23.298;2022-07-23T01:25:11;95495.23;;;21.28;54.31
6096;BME280;25081;42.698;23.298;2022-07-23T01:27:22;95489.80;;;21.26;54.18
6096;BME280;25081;42.698;23.298;2022-07-23T01:29:32;95496.86;;;21.22;54.28
6096;BME280;25081;42.698;23.298;2022-07-23T01:31:43;95494.21;;;21.14;54.67
6096;BME280;25081;42.698;23.298;2022-07-23T01:33:54;95489.03;;;21.18;54.67
6096;BME280;25081;42.698;23.298;2022-07-23T01:36:06;95484.20;;;21.07;55.11
6096;BME280;25081;42.698;23.298;2022-07-23T01:38:16;95481.77;;;21.03;55.17
6096;BME280;25081;42.698;23.298;2022-07-23T01:40:27;95482.06;;;21.04;55.37
6096;BME280;25081;42.698;23.298;2022-07-23T01:42:38;95483.14;;;21.00;55.41
6096;BME280;25081;42.698;23.298;2022-07-23T01:44:49;95489.13;;;20.97;55.40
6096;BME280;25081;42.698;23.298;2022-07-23T01:47:00;95482.33;;;21.00;55.19
6096;BME280;25081;42.698;23.298;2022-07-23T01:49:11;95483.76;;;20.87;55.76
6096;BME280;25081;42.698;23.298;2022-07-23T01:51:21;95485.16;;;20.72;56.34
6096;BME280;25081;42.698;23.298;2022-07-23T01:53:32;95489.24;;;20.64;56.58
6096;BME280;25081;42.698;23.298;2022-07-23T01:55:43;95487.61;;;20.71;56.22
6096;BME280;25081;42.698;23.298;2022-07-23T01:57:54;95486.50;;;20.74;56.02
6096;BME280;25081;42.698;23.298;2022-07-23T02:00:06;95495.44;;;20.80;55.77
6096;BME280;25081;42.698;23.298;2022-07-23T02:02:17;95496.58;;;20.66;56.09
6096;BME280;25081;42.698;23.298;2022-07-23T02:04:27;95494.45;;;20.48;56.57
6096;BME280;25081;42.698;23.298;2022-07-23T02:06:38;95490.92;;;20.40;56.82
6096;BME280;25081;42.698;23.298;2022-07-23T02:08:49;95496.37;;;20.27;57.25
6096;BME280;25081;42.698;23.298;2022-07-23T02:10:59;95497.69;;;20.35;56.97
6096;BME280;25081;42.698;23.298;2022-07-23T02:13:10;95490.12;;;20.32;56.92
6096;BME280;25081;42.698;23.298;2022-07-23T02:15:21;95491.19;;;20.36;56.77
6096;BME280;25081;42.698;23.298;2022-07-23T02:17:31;95491.20;;;20.25;57.23
6096;BME280;25081;42.698;23.298;2022-07-23T02:19:42;95493.66;;;20.27;57.07
6096;BME280;25081;42.698;23.298;2022-07-23T02:21:53;95494.19;;;20.32;56.80
6096;BME280;25081;42.698;23.298;2022-07-23T02:24:04;95495.24;;;20.36;56.37
6096;BME280;25081;42.698;23.298;2022-07-23T02:26:15;95492.82;;;20.39;56.20
6096;BME280;25081;42.698;23.298;2022-07-23T02:28:26;95491.48;;;20.29;56.56
6096;BME280;25081;42.698;23.298;2022-07-23T02:30:36;95495.28;;;20.28;56.79
6096;BME280;25081;42.698;23.298;2022-07-23T02:32:47;95499.61;;;20.29;56.70
6096;BME280;25081;42.698;23.298;2022-07-23T02:34:58;95496.09;;;20.23;56.79
6096;BME280;25081;42.698;23.298;2022-07-23T02:37:08;95494.20;;;20.21;56.98
6096;BME280;25081;42.698;23.298;2022-07-23T02:39:19;95492.31;;;20.14;57.30
6096;BME280;25081;42.698;23.298;2022-07-23T02:41:30;95496.94;;;20.09;57.41
6096;BME280;25081;42.698;23.298;2022-07-23T02:43:40;95499.38;;;20.08;57.55
6096;BME280;25081;42.698;23.298;2022-07-23T02:45:51;95503.14;;;20.07;57.65
6096;BME280;25081;42.698;23.298;2022-07-23T02:48:02;95497.48;;;20.00;57.86
6096;BME280;25081;42.698;23.298;2022-07-23T02:50:12;95497.75;;;19.91;58.37
6096;BME280;25081;42.698;23.298;2022-07-23T02:52:23;95500.19;;;19.83;58.50
6096;BME280;25081;42.698;23.298;2022-07-23T02:54:34;95498.28;;;19.76;58.76
6096;BME280;25081;42.698;23.298;2022-07-23T02:56:44;95500.72;;;19.72;58.73
6096;BME280;25081;42.698;23.298;2022-07-23T02:58:55;95506.41;;;19.73;58.84
6096;BME280;25081;42.698;23.298;2022-07-23T03:01:06;95515.61;;;19.80;58.56
6096;BME280;25081;42.698;23.298;2022-07-23T03:03:16;95513.44;;;19.84;58.42
6096;BME280;25081;42.698;23.298;2022-07-23T03:05:27;95517.48;;;19.87;58.26
6096;BME280;25081;42.698;23.298;2022-07-23T03:07:38;95519.38;;;19.86;58.38
6096;BME280;25081;42.698;23.298;2022-07-23T03:09:48;95518.58;;;19.86;58.48
6096;BME280;25081;42.698;23.298;2022-07-23T03:11:59;95518.84;;;19.77;58.86
6096;BME280;25081;42.698;23.298;2022-07-23T03:14:10;95514.80;;;19.71;58.84
6096;BME280;25081;42.698;23.298;2022-07-23T03:16:21;95528.83;;;19.58;59.71
6096;BME280;25081;42.698;23.298;2022-07-23T03:18:32;95528.83;;;19.58;59.71
6096;BME280;25081;42.698;23.298;2022-07-23T03:20:42;95534.80;;;19.63;59.42
6096;BME280;25081;42.698;23.298;2022-07-23T03:22:53;95529.66;;;19.66;59.11
6096;BME280;25081;42.698;23.298;2022-07-23T03:25:04;95536.41;;;19.66;58.96
6096;BME280;25081;42.698;23.298;2022-07-23T03:27:15;95536.14;;;19.68;58.85
6096;BME280;25081;42.698;23.298;2022-07-23T03:29:26;95535.63;;;19.71;58.66
6096;BME280;25081;42.698;23.298;2022-07-23T03:31:36;95538.07;;;19.80;58.35
6096;BME280;25081;42.698;23.298;2022-07-23T03:33:47;95536.16;;;19.86;58.13
6096;BME280;25081;42.698;23.298;2022-07-23T03:35:58;95536.45;;;20.02;57.66
6096;BME280;25081;42.698;23.298;2022-07-23T03:38:08;95536.16;;;20.16;57.34
6096;BME280;25081;42.698;23.298;2022-07-23T03:40:19;95544.56;;;20.30;56.87
6096;BME280;25081;42.698;23.298;2022-07-23T03:42:30;95546.73;;;20.43;56.48
6096;BME280;25081;42.698;23.298;2022-07-23T03:44:41;95550.52;;;20.57;56.08
6096;BME280;25081;42.698;23.298;2022-07-23T03:46:51;95555.37;;;20.55;56.11
6096;BME280;25081;42.698;23.298;2022-07-23T03:49:02;95551.83;;;20.65;55.95
6096;BME280;25081;42.698;23.298;2022-07-23T03:51:12;95547.80;;;20.45;56.50
6096;BME280;25081;42.698;23.298;2022-07-23T03:53:23;95546.18;;;20.23;57.17
6096;BME280;25081;42.698;23.298;2022-07-23T03:55:34;95547.52;;;20.34;56.95
6096;BME280;25081;42.698;23.298;2022-07-23T03:57:44;95548.08;;;20.38;56.72
6096;BME280;25081;42.698;23.298;2022-07-23T03:59:55;95547.28;;;20.48;56.42
6096;BME280;25081;42.698;23.298;2022-07-23T04:02:06;95545.09;;;20.14;57.19
6096;BME280;25081;42.698;23.298;2022-07-23T04:04:17;95548.34;;;20.06;57.49
6096;BME280;25081;42.698;23.298;2022-07-23T04:06:27;95544.02;;;20.15;57.62
6096;BME280;25081;42.698;23.298;2022-07-23T04:08:38;95549.17;;;20.27;56.91
6096;BME280;25081;42.698;23.298;2022-07-23T04:10:48;95545.62;;;20.26;57.20
6096;BME280;25081;42.698;23.298;2022-07-23T04:12:59;95551.59;;;20.23;57.42
6096;BME280;25081;42.698;23.298;2022-07-23T04:15:10;95548.63;;;20.20;57.65
6096;BME280;25081;42.698;23.298;2022-07-23T04:17:21;95543.77;;;19.99;58.15
6096;BME280;25081;42.698;23.298;2022-07-23T04:19:32;95550.50;;;19.86;58.78
6096;BME280;25081;42.698;23.298;2022-07-23T04:21:42;95546.72;;;19.85;58.87
6096;BME280;25081;42.698;23.298;2022-07-23T04:23:53;95549.42;;;19.85;58.86
6096;BME280;25081;42.698;23.298;2022-07-23T04:26:04;95559.17;;;19.96;58.90
6096;BME280;25081;42.698;23.298;2022-07-23T04:28:14;95554.57;;;20.07;58.47
6096;BME280;25081;42.698;23.298;2022-07-23T04:30:25;95551.34;;;20.27;57.49
6096;BME280;25081;42.698;23.298;2022-07-23T04:32:36;95556.74;;;20.38;57.34
6096;BME280;25081;42.698;23.298;2022-07-23T04:34:46;95558.34;;;20.36;56.98
6096;BME280;25081;42.698;23.298;2022-07-23T04:36:57;95558.64;;;20.29;57.27
6096;BME280;25081;42.698;23.298;2022-07-23T04:39:07;95558.92;;;20.08;58.21
6096;BME280;25081;42.698;23.298;2022-07-23T04:41:18;95558.09;;;20.22;57.72
6096;BME280;25081;42.698;23.298;2022-07-23T04:43:29;95559.14;;;20.77;56.42
6096;BME280;25081;42.698;23.298;2022-07-23T04:45:40;95560.06;;;21.77;53.77
6096;BME280;25081;42.698;23.298;2022-07-23T04:47:50;95555.02;;;22.65;50.94
6096;BME280;25081;42.698;23.298;2022-07-23T04:50:01;95559.19;;;23.31;49.11
6096;BME280;25081;42.698;23.298;2022-07-23T04:52:11;95559.86;;;23.85;47.80
6096;BME280;25081;42.698;23.298;2022-07-23T04:54:22;95563.59;;;24.08;47.04
6096;BME280;25081;42.698;23.298;2022-07-23T04:56:33;95563.20;;;24.49;46.25
6096;BME280;25081;42.698;23.298;2022-07-23T04:58:44;95567.28;;;24.82;45.49
6096;BME280;25081;42.698;23.298;2022-07-23T05:00:54;95564.22;;;25.00;44.65
6096;BME280;25081;42.698;23.298;2022-07-23T05:03:05;95570.15;;;25.04;44.58
6096;BME280;25081;42.698;23.298;2022-07-23T05:05:16;95565.85;;;25.42;43.72
6096;BME280;25081;42.698;23.298;2022-07-23T05:07:27;95557.90;;;26.07;41.99
6096;BME280;25081;42.698;23.298;2022-07-23T05:09:38;95561.75;;;26.06;42.25
6096;BME280;25081;42.698;23.298;2022-07-23T05:11:49;95557.81;;;26.45;41.56
6096;BME280;25081;42.698;23.298;2022-07-23T05:13:59;95559.22;;;25.84;42.38
6096;BME280;25081;42.698;23.298;2022-07-23T05:16:10;95562.73;;;25.74;42.93
6096;BME280;25081;42.698;23.298;2022-07-23T05:18:21;95566.27;;;25.99;42.57
6096;BME280;25081;42.698;23.298;2022-07-23T05:20:32;95569.19;;;26.14;42.00
6096;BME280;25081;42.698;23.298;2022-07-23T05:22:42;95559.97;;;26.88;39.90
6096;BME280;25081;42.698;23.298;2022-07-23T05:24:53;95561.86;;;26.79;39.70
6096;BME280;25081;42.698;23.298;2022-07-23T05:27:04;95564.16;;;26.86;39.64
6096;BME280;25081;42.698;23.298;2022-07-23T05:29:15;95565.07;;;25.91;41.29
6096;BME280;25081;42.698;23.298;2022-07-23T05:31:26;95565.89;;;26.14;41.26
6096;BME280;25081;42.698;23.298;2022-07-23T05:33:37;95558.26;;;27.32;38.59
6096;BME280;25081;42.698;23.298;2022-07-23T05:35:47;95557.92;;;27.90;37.55
6096;BME280;25081;42.698;23.298;2022-07-23T05:37:58;95562.67;;;28.05;37.06
6096;BME280;25081;42.698;23.298;2022-07-23T05:40:10;95563.65;;;27.63;37.90
6096;BME280;25081;42.698;23.298;2022-07-23T05:42:21;95568.07;;;27.02;39.61
6096;BME280;25081;42.698;23.298;2022-07-23T05:44:31;95567.52;;;26.71;40.16
6096;BME280;25081;42.698;23.298;2022-07-23T05:46:42;95567.98;;;26.65;40.35
6096;BME280;25081;42.698;23.298;2022-07-23T05:48:53;95565.80;;;27.83;38.36
6096;BME280;25081;42.698;23.298;2022-07-23T05:51:04;95564.77;;;27.82;38.19
6096;BME280;25081;42.698;23.298;2022-07-23T05:53:14;95562.00;;;29.24;35.80
6096;BME280;25081;42.698;23.298;2022-07-23T05:55:25;95560.05;;;29.62;34.68
6096;BME280;25081;42.698;23.298;2022-07-23T05:57:36;95558.02;;;28.89;35.77
6096;BME280;25081;42.698;23.298;2022-07-23T05:59:47;95560.89;;;29.25;35.38
6096;BME280;25081;42.698;23.298;2022-07-23T06:01:57;95567.92;;;30.29;32.82
6096;BME280;25081;42.698;23.298;2022-07-23T06:04:08;95561.04;;;30.23;32.83
6096;BME280;25081;42.698;23.298;2022-07-23T06:06:19;95560.25;;;28.46;35.62
6096;BME280;25081;42.698;23.298;2022-07-23T06:08:30;95558.63;;;28.54;35.64
6096;BME280;25081;42.698;23.298;2022-07-23T06:10:41;95554.00;;;28.29;35.86
6096;BME280;25081;42.698;23.298;2022-07-23T06:12:51;95554.61;;;28.84;35.05
6096;BME280;25081;42.698;23.298;2022-07-23T06:15:03;95556.59;;;27.79;36.14
6096;BME280;25081;42.698;23.298;2022-07-23T06:17:13;95547.20;;;28.75;34.67
6096;BME280;25081;42.698;23.298;2022-07-23T06:19:23;95551.25;;;30.13;32.38
6096;BME280;25081;42.698;23.298;2022-07-23T06:21:34;95552.98;;;29.00;33.74
6096;BME280;25081;42.698;23.298;2022-07-23T06:23:45;95550.45;;;28.77;34.03
6096;BME280;25081;42.698;23.298;2022-07-23T06:25:55;95549.77;;;29.13;33.65
6096;BME280;25081;42.698;23.298;2022-07-23T06:28:06;95549.17;;;31.16;31.67
6096;BME280;25081;42.698;23.298;2022-07-23T06:30:17;95548.17;;;32.62;29.19
6096;BME280;25081;42.698;23.298;2022-07-23T06:32:28;95540.33;;;33.45;28.14
6096;BME280;25081;42.698;23.298;2022-07-23T06:34:38;95551.09;;;33.66;27.30
6096;BME280;25081;42.698;23.298;2022-07-23T06:36:49;95542.56;;;31.78;30.36
6096;BME280;25081;42.698;23.298;2022-07-23T06:39:00;95538.58;;;32.15;30.50
6096;BME280;25081;42.698;23.298;2022-07-23T06:41:10;95536.98;;;32.42;29.80
6096;BME280;25081;42.698;23.298;2022-07-23T06:43:21;95543.25;;;31.32;31.80
6096;BME280;25081;42.698;23.298;2022-07-23T06:45:31;95540.02;;;32.81;29.36
6096;BME280;25081;42.698;23.298;2022-07-23T06:47:42;95540.00;;;32.43;29.87
6096;BME280;25081;42.698;23.298;2022-07-23T06:49:53;95541.73;;;31.96;30.54
6096;BME280;25081;42.698;23.298;2022-07-23T06:52:04;95541.87;;;33.05;28.62
6096;BME280;25081;42.698;23.298;2022-07-23T06:54:15;95539.14;;;34.32;27.01
6096;BME280;25081;42.698;23.298;2022-07-23T06:56:25;95537.78;;;34.52;26.49
6096;BME280;25081;42.698;23.298;2022-07-23T06:58:36;95533.94;;;33.92;27.58
6096;BME280;25081;42.698;23.298;2022-07-23T07:00:47;95534.12;;;31.07;31.36
6096;BME280;25081;42.698;23.298;2022-07-23T07:02:58;95537.19;;;30.81;31.88
6096;BME280;25081;42.698;23.298;2022-07-23T07:05:09;95536.13;;;31.43;31.11
6096;BME280;25081;42.698;23.298;2022-07-23T07:07:20;95531.89;;;32.51;29.84
6096;BME280;25081;42.698;23.298;2022-07-23T07:09:30;95538.62;;;32.65;29.48
6096;BME280;25081;42.698;23.298;2022-07-23T07:11:41;95531.73;;;32.87;29.48
6096;BME280;25081;42.698;23.298;2022-07-23T07:13:52;95520.83;;;33.16;28.08
6096;BME280;25081;42.698;23.298;2022-07-23T07:16:02;95526.24;;;34.11;27.46
6096;BME280;25081;42.698;23.298;2022-07-23T07:18:13;95526.37;;;35.18;25.68
6096;BME280;25081;42.698;23.298;2022-07-23T07:20:24;95516.19;;;33.87;27.29
6096;BME280;25081;42.698;23.298;2022-07-23T07:22:34;95522.25;;;32.10;29.41
6096;BME280;25081;42.698;23.298;2022-07-23T07:24:45;95521.78;;;31.38;31.29
6096;BME280;25081;42.698;23.298;2022-07-23T07:26:55;95519.19;;;33.06;28.70
6096;BME280;25081;42.698;23.298;2022-07-23T07:29:06;95518.55;;;31.78;30.16
6096;BME280;25081;42.698;23.298;2022-07-23T07:31:17;95522.94;;;31.37;30.77
6096;BME280;25081;42.698;23.298;2022-07-23T07:33:28;95514.44;;;32.68;28.97
6096;BME280;25081;42.698;23.298;2022-07-23T07:35:39;95507.95;;;32.77;27.96
6096;BME280;25081;42.698;23.298;2022-07-23T07:37:49;95507.84;;;31.65;29.37
6096;BME280;25081;42.698;23.298;2022-07-23T07:40:00;95510.29;;;32.68;28.58
6096;BME280;25081;42.698;23.298;2022-07-23T07:42:10;95506.09;;;32.59;28.14
6096;BME280;25081;42.698;23.298;2022-07-23T07:44:21;95508.26;;;33.85;26.92
6096;BME280;25081;42.698;23.298;2022-07-23T07:46:32;95505.27;;;33.84;26.09
6096;BME280;25081;42.698;23.298;2022-07-23T07:48:42;95503.59;;;34.54;25.86
6096;BME280;25081;42.698;23.298;2022-07-23T07:50:53;95499.56;;;35.49;24.56
6096;BME280;25081;42.698;23.298;2022-07-23T07:53:04;95502.56;;;35.63;24.46
6096;BME280;25081;42.698;23.298;2022-07-23T07:55:14;95498.24;;;36.73;22.63
6096;BME280;25081;42.698;23.298;2022-07-23T07:57:25;95496.95;;;35.46;24.07
6096;BME280;25081;42.698;23.298;2022-07-23T07:59:36;95491.90;;;35.92;23.12
6096;BME280;25081;42.698;23.298;2022-07-23T08:01:47;95493.95;;;34.77;24.82
6096;BME280;25081;42.698;23.298;2022-07-23T08:03:57;95490.80;;;36.30;23.38
6096;BME280;25081;42.698;23.298;2022-07-23T08:06:08;95491.41;;;35.46;24.16
6096;BME280;25081;42.698;23.298;2022-07-23T08:08:19;95494.20;;;34.58;24.94
6096;BME280;25081;42.698;23.298;2022-07-23T08:10:30;95491.57;;;35.44;23.90
6096;BME280;25081;42.698;23.298;2022-07-23T08:12:42;95492.54;;;34.96;24.61
6096;BME280;25081;42.698;23.298;2022-07-23T08:14:52;95481.05;;;36.60;22.49
6096;BME280;25081;42.698;23.298;2022-07-23T08:17:03;95490.72;;;37.89;21.14
6096;BME280;25081;42.698;23.298;2022-07-23T08:19:13;95484.15;;;38.78;20.22
6096;BME280;25081;42.698;23.298;2022-07-23T08:21:24;95482.25;;;39.61;19.16
6096;BME280;25081;42.698;23.298;2022-07-23T08:23:35;95483.41;;;39.88;18.57
6096;BME280;25081;42.698;23.298;2022-07-23T08:25:46;95482.22;;;39.75;18.37
6096;BME280;25081;42.698;23.298;2022-07-23T08:27:57;95478.64;;;39.78;18.25
6096;BME280;25081;42.698;23.298;2022-07-23T08:30:09;95483.06;;;38.10;20.55
6096;BME280;25081;42.698;23.298;2022-07-23T08:32:20;95481.66;;;35.43;23.20
6096;BME280;25081;42.698;23.298;2022-07-23T08:34:31;95484.67;;;34.46;24.44
6096;BME280;25081;42.698;23.298;2022-07-23T08:36:41;95475.16;;;34.66;24.39
6096;BME280;25081;42.698;23.298;2022-07-23T08:38:52;95476.48;;;36.11;22.48
6096;BME280;25081;42.698;23.298;2022-07-23T08:41:03;95480.13;;;34.38;24.80
6096;BME280;25081;42.698;23.298;2022-07-23T08:43:15;95477.64;;;33.94;25.95
6096;BME280;25081;42.698;23.298;2022-07-23T08:45:25;95479.99;;;33.10;26.18
6096;BME280;25081;42.698;23.298;2022-07-23T08:47:36;95474.91;;;32.58;27.04
6096;BME280;25081;42.698;23.298;2022-07-23T08:49:46;95474.59;;;33.64;26.19
6096;BME280;25081;42.698;23.298;2022-07-23T08:51:57;95470.58;;;35.33;24.27
6096;BME280;25081;42.698;23.298;2022-07-23T08:54:08;95460.92;;;37.14;21.86
6096;BME280;25081;42.698;23.298;2022-07-23T08:56:18;95469.69;;;38.37;20.69
6096;BME280;25081;42.698;23.298;2022-07-23T08:58:29;95454.12;;;39.35;19.57
6096;BME280;25081;42.698;23.298;2022-07-23T09:00:40;95460.27;;;38.99;20.47
6096;BME280;25081;42.698;23.298;2022-07-23T09:02:51;95456.91;;;37.56;21.79
6096;BME280;25081;42.698;23.298;2022-07-23T09:05:01;95452.27;;;37.47;21.42
6096;BME280;25081;42.698;23.298;2022-07-23T09:07:12;95455.02;;;36.25;22.64
6096;BME280;25081;42.698;23.298;2022-07-23T09:09:22;95455.78;;;36.55;22.68
6096;BME280;25081;42.698;23.298;2022-07-23T09:11:33;95455.14;;;37.10;22.17
6096;BME280;25081;42.698;23.298;2022-07-23T09:13:45;95453.28;;;37.52;21.64
6096;BME280;25081;42.698;23.298;2022-07-23T09:15:55;95459.77;;;37.70;20.98
6096;BME280;25081;42.698;23.298;2022-07-23T09:18:05;95453.44;;;37.22;21.11
6096;BME280;25081;42.698;23.298;2022-07-23T09:20:16;95453.80;;;37.41;20.49
6096;BME280;25081;42.698;23.298;2022-07-23T09:22:27;95446.70;;;37.47;20.33
6096;BME280;25081;42.698;23.298;2022-07-23T09:24:38;95453.16;;;36.49;21.34
6096;BME280;25081;42.698;23.298;2022-07-23T09:26:49;95450.30;;;35.69;22.28
6096;BME280;25081;42.698;23.298;2022-07-23T09:29:05;95453.03;;;35.92;22.16
6096;BME280;25081;42.698;23.298;2022-07-23T09:31:15;95450.41;;;36.73;21.51
6096;BME280;25081;42.698;23.298;2022-07-23T09:33:25;95446.55;;;37.29;20.80
6096;BME280;25081;42.698;23.298;2022-07-23T09:38:14;95440.16;;;39.06;18.92
6096;BME280;25081;42.698;23.298;2022-07-23T09:40:25;95437.36;;;39.70;17.73
6096;BME280;25081;42.698;23.298;2022-07-23T09:42:35;95432.41;;;39.59;18.48
6096;BME280;25081;42.698;23.298;2022-07-23T09:44:47;95434.70;;;39.96;17.74
6096;BME280;25081;42.698;23.298;2022-07-23T09:46:59;95422.73;;;39.99;17.98
6096;BME280;25081;42.698;23.298;2022-07-23T09:49:29;95424.83;;;39.42;17.86
6096;BME280;25081;42.698;23.298;2022-07-23T09:51:46;95421.84;;;39.02;17.38
6096;BME280;25081;42.698;23.298;2022-07-23T09:53:56;95423.70;;;38.41;18.10
6096;BME280;25081;42.698;23.298;2022-07-23T09:56:08;95425.02;;;39.04;17.41
6096;BME280;25081;42.698;23.298;2022-07-23T09:58:19;95422.63;;;39.48;17.14
6096;BME280;25081;42.698;23.298;2022-07-23T10:00:30;95415.02;;;40.28;16.61
6096;BME280;25081;42.698;23.298;2022-07-23T10:02:41;95417.77;;;39.88;16.73
6096;BME280;25081;42.698;23.298;2022-07-23T10:04:52;95409.27;;;40.60;16.08
6096;BME280;25081;42.698;23.298;2022-07-23T10:07:03;95409.34;;;41.35;14.96
6096;BME280;25081;42.698;23.298;2022-07-23T10:09:13;95407.30;;;41.95;14.14
6096;BME280;25081;42.698;23.298;2022-07-23T10:11:24;95406.64;;;41.84;14.48
6096;BME280;25081;42.698;23.298;2022-07-23T10:13:35;95401.30;;;41.78;14.12
6096;BME280;25081;42.698;23.298;2022-07-23T10:16:02;95404.05;;;42.00;14.44
6096;BME280;25081;42.698;23.298;2022-07-23T10:18:13;95398.27;;;41.99;14.63
6096;BME280;25081;42.698;23.298;2022-07-23T10:20:24;95399.45;;;41.83;14.75
6096;BME280;25081;42.698;23.298;2022-07-23T10:22:36;95396.20;;;41.25;14.38
6096;BME280;25081;42.698;23.298;2022-07-23T10:24:55;95393.52;;;41.10;14.05
6096;BME280;25081;42.698;23.298;2022-07-23T10:27:11;95390.37;;;41.68;13.17
6096;BME280;25081;42.698;23.298;2022-07-23T10:29:23;95399.48;;;41.98;12.70
6096;BME280;25081;42.698;23.298;2022-07-23T10:31:38;95395.22;;;42.02;13.19
6096;BME280;25081;42.698;23.298;2022-07-23T10:33:50;95391.34;;;40.54;13.67
6096;BME280;25081;42.698;23.298;2022-07-23T10:36:02;95383.38;;;38.87;15.67
6096;BME280;25081;42.698;23.298;2022-07-23T10:38:13;95382.24;;;39.85;15.36
6096;BME280;25081;42.698;23.298;2022-07-23T10:40:22;95383.48;;;38.24;15.88
6096;BME280;25081;42.698;23.298;2022-07-23T10:42:35;95381.96;;;36.99;16.83
6096;BME280;25081;42.698;23.298;2022-07-23T10:44:46;95380.59;;;36.82;17.25
6096;BME280;25081;42.698;23.298;2022-07-23T10:46:58;95377.80;;;36.37;17.07
6096;BME280;25081;42.698;23.298;2022-07-23T10:49:27;95364.42;;;35.93;17.29
6096;BME280;25081;42.698;23.298;2022-07-23T10:51:37;95367.16;;;37.39;16.56
6096;BME280;25081;42.698;23.298;2022-07-23T10:53:58;95369.20;;;36.94;16.37
6096;BME280;25081;42.698;23.298;2022-07-23T10:56:08;95364.05;;;36.96;16.76
6096;BME280;25081;42.698;23.298;2022-07-23T10:58:25;95357.48;;;36.71;16.93
6096;BME280;25081;42.698;23.298;2022-07-23T11:00:34;95357.16;;;37.69;14.43
6096;BME280;25081;42.698;23.298;2022-07-23T11:02:45;95357.13;;;38.03;13.92
6096;BME280;25081;42.698;23.298;2022-07-23T11:04:59;95347.32;;;38.70;12.55
6096;BME280;25081;42.698;23.298;2022-07-23T11:07:09;95353.91;;;39.14;12.52
6096;BME280;25081;42.698;23.298;2022-07-23T11:09:26;95350.64;;;38.27;12.43
6096;BME280;25081;42.698;23.298;2022-07-23T11:11:37;95346.09;;;38.46;12.39
6096;BME280;25081;42.698;23.298;2022-07-23T11:13:48;95334.53;;;38.37;12.55
6096;BME280;25081;42.698;23.298;2022-07-23T11:16:27;95334.23;;;38.00;12.47
6096;BME280;25081;42.698;23.298;2022-07-23T11:18:57;95335.03;;;37.94;12.38
6096;BME280;25081;42.698;23.298;2022-07-23T11:21:42;95335.22;;;37.98;13.02
6096;BME280;25081;42.698;23.298;2022-07-23T11:24:03;95332.66;;;38.06;13.30
6096;BME280;25081;42.698;23.298;2022-07-23T11:26:24;95329.70;;;38.13;13.25
6096;BME280;25081;42.698;23.298;2022-07-23T11:28:35;95326.70;;;37.56;12.83
6096;BME280;25081;42.698;23.298;2022-07-23T11:30:46;95317.48;;;36.58;12.75
6096;BME280;25081;42.698;23.298;2022-07-23T11:33:15;95314.05;;;36.52;13.11
6096;BME280;25081;42.698;23.298;2022-07-23T11:35:27;95326.11;;;36.94;13.27
6096;BME280;25081;42.698;23.298;2022-07-23T11:37:38;95316.33;;;37.49;13.70